sensor_id;sensor_type;location;lat;lon;timestamp;P1;durP1;ratioP1;P2;durP2;ratioP2
56005;SDS011;41888;44.696;10.522;2023-05-13T00:02:03;11.82;;;8.18;;
56005;SDS011;41888;44.696;10.522;2023-05-13T00:04:32;11.00;;;7.68;;
56005;SDS011;41888;44.696;10.522;2023-05-13T00:06:58;12.82;;;7.78;;
56005;SDS011;41888;44.696;10.522;2023-05-13T00:09:24;13.57;;;8.73;;
56005;SDS011;41888;44.696;10.522;2023-05-13T00:11:50;13.77;;;8.05;;
56005;SDS011;41888;44.696;10.522;2023-05-13T00:14:16;14.30;;;8.80;;
56005;SDS011;41888;44.696;10.522;2023-05-13T00:16:43;13.63;;;8.40;;
56005;SDS011;41888;44.696;10.522;2023-05-13T00:19:09;13.65;;;7.93;;
56005;SDS011;41888;44.696;10.522;2023-05-13T00:21:35;14.57;;;8.63;;
56005;SDS011;41888;44.696;10.522;2023-05-13T00:24:01;13.60;;;7.88;;
56005;SDS011;41888;44.696;10.522;2023-05-13T00:26:28;15.18;;;8.85;;
56005;SDS011;41888;44.696;10.522;2023-05-13T00:28:55;12.10;;;8.50;;
56005;SDS011;41888;44.696;10.522;2023-05-13T00:31:21;13.55;;;8.57;;
56005;SDS011;41888;44.696;10.522;2023-05-13T00:33:47;14.02;;;8.65;;
56005;SDS011;41888;44.696;10.522;2023-05-13T00:36:13;12.23;;;8.65;;
56005;SDS011;41888;44.696;10.522;2023-05-13T00:38:39;13.95;;;8.30;;
56005;SDS011;41888;44.696;10.522;2023-05-13T00:41:08;15.32;;;8.95;;
56005;SDS011;41888;44.696;10.522;2023-05-13T00:43:34;15.70;;;9.05;;
56005;SDS011;41888;44.696;10.522;2023-05-13T00:46:00;16.02;;;8.90;;
56005;SDS011;41888;44.696;10.522;2023-05-13T00:48:26;15.23;;;8.77;;
56005;SDS011;41888;44.696;10.522;2023-05-13T00:50:53;16.38;;;9.85;;
56005;SDS011;41888;44.696;10.522;2023-05-13T00:53:19;15.13;;;8.88;;
56005;SDS011;41888;44.696;10.522;2023-05-13T00:55:46;20.63;;;10.77;;
56005;SDS011;41888;44.696;10.522;2023-05-13T00:58:12;19.85;;;10.48;;
56005;SDS011;41888;44.696;10.522;2023-05-13T01:01:25;17.75;;;9.60;;
56005;SDS011;41888;44.696;10.522;2023-05-13T01:12:08;16.80;;;8.90;;
56005;SDS011;41888;44.696;10.522;2023-05-13T01:14:41;12.98;;;7.28;;
56005;SDS011;41888;44.696;10.522;2023-05-13T01:17:14;12.70;;;8.02;;
56005;SDS011;41888;44.696;10.522;2023-05-13T01:19:50;8.48;;;5.25;;
56005;SDS011;41888;44.696;10.522;2023-05-13T01:22:18;11.48;;;6.00;;
56005;SDS011;41888;44.696;10.522;2023-05-13T01:24:45;11.52;;;4.97;;
56005;SDS011;41888;44.696;10.522;2023-05-13T01:27:11;7.82;;;4.45;;
56005;SDS011;41888;44.696;10.522;2023-05-13T01:29:38;7.63;;;3.65;;
56005;SDS011;41888;44.696;10.522;2023-05-13T01:32:05;6.03;;;4.22;;
56005;SDS011;41888;44.696;10.522;2023-05-13T01:34:33;9.25;;;4.00;;
56005;SDS011;41888;44.696;10.522;2023-05-13T01:37:00;8.15;;;3.28;;
56005;SDS011;41888;44.696;10.522;2023-05-13T01:39:27;5.25;;;3.00;;
56005;SDS011;41888;44.696;10.522;2023-05-13T01:41:54;7.80;;;3.30;;
56005;SDS011;41888;44.696;10.522;2023-05-13T01:44:20;7.50;;;4.10;;
56005;SDS011;41888;44.696;10.522;2023-05-13T01:46:47;12.98;;;5.97;;
56005;SDS011;41888;44.696;10.522;2023-05-13T01:49:14;9.70;;;4.68;;
56005;SDS011;41888;44.696;10.522;2023-05-13T01:51:41;10.07;;;3.67;;
56005;SDS011;41888;44.696;10.522;2023-05-13T01:54:07;9.23;;;4.45;;
56005;SDS011;41888;44.696;10.522;2023-05-13T01:56:33;10.50;;;5.13;;
56005;SDS011;41888;44.696;10.522;2023-05-13T01:59:00;12.00;;;5.32;;
56005;SDS011;41888;44.696;10.522;2023-05-13T02:01:26;8.70;;;5.18;;
56005;SDS011;41888;44.696;10.522;2023-05-13T02:03:52;7.50;;;3.90;;
56005;SDS011;41888;44.696;10.522;2023-05-13T02:06:18;12.10;;;5.72;;
56005;SDS011;41888;44.696;10.522;2023-05-13T02:08:44;7.90;;;5.20;;
56005;SDS011;41888;44.696;10.522;2023-05-13T02:11:11;10.02;;;5.15;;
56005;SDS011;41888;44.696;10.522;2023-05-13T02:13:37;9.30;;;5.15;;
56005;SDS011;41888;44.696;10.522;2023-05-13T02:16:03;12.02;;;5.40;;
56005;SDS011;41888;44.696;10.522;2023-05-13T02:18:29;12.95;;;5.43;;
56005;SDS011;41888;44.696;10.522;2023-05-13T02:20:56;8.38;;;4.32;;
56005;SDS011;41888;44.696;10.522;2023-05-13T02:23:22;8.00;;;4.00;;
56005;SDS011;41888;44.696;10.522;2023-05-13T02:25:48;8.70;;;4.95;;
56005;SDS011;41888;44.696;10.522;2023-05-13T02:28:14;9.30;;;5.13;;
56005;SDS011;41888;44.696;10.522;2023-05-13T02:30:40;10.30;;;5.25;;
56005;SDS011;41888;44.696;10.522;2023-05-13T02:33:06;13.38;;;6.22;;
56005;SDS011;41888;44.696;10.522;2023-05-13T02:35:33;14.25;;;6.72;;
56005;SDS011;41888;44.696;10.522;2023-05-13T02:37:59;12.95;;;6.70;;
56005;SDS011;41888;44.696;10.522;2023-05-13T02:40:27;12.23;;;6.55;;
56005;SDS011;41888;44.696;10.522;2023-05-13T02:42:54;12.60;;;5.85;;
56005;SDS011;41888;44.696;10.522;2023-05-13T02:45:20;13.38;;;6.45;;
56005;SDS011;41888;44.696;10.522;2023-05-13T02:47:46;10.23;;;5.75;;
56005;SDS011;41888;44.696;10.522;2023-05-13T02:50:12;14.18;;;5.80;;
56005;SDS011;41888;44.696;10.522;2023-05-13T02:52:38;10.52;;;5.50;;
56005;SDS011;41888;44.696;10.522;2023-05-13T02:55:05;15.38;;;6.82;;
56005;SDS011;41888;44.696;10.522;2023-05-13T02:57:33;10.50;;;5.78;;
56005;SDS011;41888;44.696;10.522;2023-05-13T02:59:59;11.85;;;6.03;;
56005;SDS011;41888;44.696;10.522;2023-05-13T03:02:26;10.60;;;6.00;;
56005;SDS011;41888;44.696;10.522;2023-05-13T03:04:52;16.67;;;7.50;;
56005;SDS011;41888;44.696;10.522;2023-05-13T03:07:20;11.43;;;6.15;;
56005;SDS011;41888;44.696;10.522;2023-05-13T03:09:47;12.50;;;6.55;;
56005;SDS011;41888;44.696;10.522;2023-05-13T03:12:13;12.55;;;6.95;;
56005;SDS011;41888;44.696;10.522;2023-05-13T03:14:40;12.27;;;5.80;;
56005;SDS011;41888;44.696;10.522;2023-05-13T03:17:08;10.30;;;6.55;;
56005;SDS011;41888;44.696;10.522;2023-05-13T03:19:35;17.63;;;6.32;;
56005;SDS011;41888;44.696;10.522;2023-05-13T03:22:02;13.27;;;6.38;;
56005;SDS011;41888;44.696;10.522;2023-05-13T03:24:29;19.23;;;7.95;;
56005;SDS011;41888;44.696;10.522;2023-05-13T03:26:56;13.40;;;7.32;;
56005;SDS011;41888;44.696;10.522;2023-05-13T03:29:22;11.80;;;7.00;;
56005;SDS011;41888;44.696;10.522;2023-05-13T03:31:49;13.70;;;6.82;;
56005;SDS011;41888;44.696;10.522;2023-05-13T03:34:16;14.02;;;6.18;;
56005;SDS011;41888;44.696;10.522;2023-05-13T03:36:42;11.45;;;6.38;;
56005;SDS011;41888;44.696;10.522;2023-05-13T03:39:08;11.27;;;6.38;;
56005;SDS011;41888;44.696;10.522;2023-05-13T03:41:34;11.15;;;5.85;;
56005;SDS011;41888;44.696;10.522;2023-05-13T03:44:01;10.80;;;5.40;;
56005;SDS011;41888;44.696;10.522;2023-05-13T03:46:27;9.93;;;5.93;;
56005;SDS011;41888;44.696;10.522;2023-05-13T03:48:54;13.55;;;6.15;;
56005;SDS011;41888;44.696;10.522;2023-05-13T03:51:21;12.32;;;6.20;;
56005;SDS011;41888;44.696;10.522;2023-05-13T03:53:49;8.65;;;5.15;;
56005;SDS011;41888;44.696;10.522;2023-05-13T03:56:15;15.35;;;7.28;;
56005;SDS011;41888;44.696;10.522;2023-05-13T03:58:41;13.98;;;7.05;;
56005;SDS011;41888;44.696;10.522;2023-05-13T04:01:07;15.73;;;6.95;;
56005;SDS011;41888;44.696;10.522;2023-05-13T04:03:34;12.48;;;6.28;;
56005;SDS011;41888;44.696;10.522;2023-05-13T04:06:00;14.43;;;6.88;;
56005;SDS011;41888;44.696;10.522;2023-05-13T04:08:26;9.20;;;4.50;;
56005;SDS011;41888;44.696;10.522;2023-05-13T04:10:52;10.90;;;5.25;;
56005;SDS011;41888;44.696;10.522;2023-05-13T04:13:20;10.35;;;5.28;;
56005;SDS011;41888;44.696;10.522;2023-05-13T04:15:46;13.85;;;5.78;;
56005;SDS011;41888;44.696;10.522;2023-05-13T04:18:13;10.18;;;5.88;;
56005;SDS011;41888;44.696;10.522;2023-05-13T04:20:39;12.57;;;6.45;;
56005;SDS011;41888;44.696;10.522;2023-05-13T04:23:05;10.05;;;5.88;;
56005;SDS011;41888;44.696;10.522;2023-05-13T04:25:33;12.00;;;5.47;;
56005;SDS011;41888;44.696;10.522;2023-05-13T04:28:01;11.90;;;5.13;;
56005;SDS011;41888;44.696;10.522;2023-05-13T04:30:27;12.82;;;6.20;;
56005;SDS011;41888;44.696;10.522;2023-05-13T04:32:53;11.05;;;5.35;;
56005;SDS011;41888;44.696;10.522;2023-05-13T04:35:20;9.65;;;5.03;;
56005;SDS011;41888;44.696;10.522;2023-05-13T04:37:46;10.57;;;5.13;;
56005;SDS011;41888;44.696;10.522;2023-05-13T04:40:13;10.02;;;5.35;;
56005;SDS011;41888;44.696;10.522;2023-05-13T04:42:40;12.75;;;6.18;;
56005;SDS011;41888;44.696;10.522;2023-05-13T04:45:06;10.50;;;5.32;;
56005;SDS011;41888;44.696;10.522;2023-05-13T04:47:33;9.40;;;5.45;;
56005;SDS011;41888;44.696;10.522;2023-05-13T04:49:59;9.63;;;5.35;;
56005;SDS011;41888;44.696;10.522;2023-05-13T04:52:26;9.40;;;4.72;;
56005;SDS011;41888;44.696;10.522;2023-05-13T04:54:52;12.75;;;7.32;;
56005;SDS011;41888;44.696;10.522;2023-05-13T04:57:18;11.40;;;5.97;;
56005;SDS011;41888;44.696;10.522;2023-05-13T04:59:44;14.52;;;7.13;;
56005;SDS011;41888;44.696;10.522;2023-05-13T05:02:10;14.50;;;7.50;;
56005;SDS011;41888;44.696;10.522;2023-05-13T05:04:36;15.45;;;8.38;;
56005;SDS011;41888;44.696;10.522;2023-05-13T05:07:03;19.80;;;8.73;;
56005;SDS011;41888;44.696;10.522;2023-05-13T05:09:29;19.23;;;8.23;;
56005;SDS011;41888;44.696;10.522;2023-05-13T05:11:55;16.90;;;8.27;;
56005;SDS011;41888;44.696;10.522;2023-05-13T05:14:21;17.13;;;8.38;;
56005;SDS011;41888;44.696;10.522;2023-05-13T05:16:47;22.10;;;9.30;;
56005;SDS011;41888;44.696;10.522;2023-05-13T05:19:13;18.77;;;9.77;;
56005;SDS011;41888;44.696;10.522;2023-05-13T05:21:40;20.75;;;9.45;;
56005;SDS011;41888;44.696;10.522;2023-05-13T05:24:06;19.85;;;9.25;;
56005;SDS011;41888;44.696;10.522;2023-05-13T05:26:32;19.15;;;9.32;;
56005;SDS011;41888;44.696;10.522;2023-05-13T05:28:58;17.45;;;8.82;;
56005;SDS011;41888;44.696;10.522;2023-05-13T05:31:24;15.65;;;8.27;;
56005;SDS011;41888;44.696;10.522;2023-05-13T05:33:51;17.05;;;8.35;;
56005;SDS011;41888;44.696;10.522;2023-05-13T05:36:17;15.10;;;8.63;;
56005;SDS011;41888;44.696;10.522;2023-05-13T05:38:44;15.43;;;8.15;;
56005;SDS011;41888;44.696;10.522;2023-05-13T05:41:11;15.68;;;8.25;;
56005;SDS011;41888;44.696;10.522;2023-05-13T05:43:37;18.27;;;9.05;;
56005;SDS011;41888;44.696;10.522;2023-05-13T05:46:04;16.35;;;8.75;;
56005;SDS011;41888;44.696;10.522;2023-05-13T05:48:30;18.40;;;9.00;;
56005;SDS011;41888;44.696;10.522;2023-05-13T05:50:56;16.30;;;8.30;;
56005;SDS011;41888;44.696;10.522;2023-05-13T05:53:22;18.20;;;8.00;;
56005;SDS011;41888;44.696;10.522;2023-05-13T05:55:48;17.77;;;8.57;;
56005;SDS011;41888;44.696;10.522;2023-05-13T05:58:15;16.48;;;8.35;;
56005;SDS011;41888;44.696;10.522;2023-05-13T06:00:41;17.92;;;8.40;;
56005;SDS011;41888;44.696;10.522;2023-05-13T06:03:07;14.13;;;8.18;;
56005;SDS011;41888;44.696;10.522;2023-05-13T06:05:33;16.77;;;7.88;;
56005;SDS011;41888;44.696;10.522;2023-05-13T06:08:00;13.77;;;7.75;;
56005;SDS011;41888;44.696;10.522;2023-05-13T06:10:26;14.77;;;8.35;;
56005;SDS011;41888;44.696;10.522;2023-05-13T06:12:52;15.10;;;7.53;;
56005;SDS011;41888;44.696;10.522;2023-05-13T06:15:18;12.82;;;6.07;;
56005;SDS011;41888;44.696;10.522;2023-05-13T06:17:44;15.15;;;7.10;;
56005;SDS011;41888;44.696;10.522;2023-05-13T06:20:11;12.43;;;6.97;;
56005;SDS011;41888;44.696;10.522;2023-05-13T06:22:37;12.32;;;6.45;;
56005;SDS011;41888;44.696;10.522;2023-05-13T06:25:04;11.68;;;6.57;;
56005;SDS011;41888;44.696;10.522;2023-05-13T06:27:30;15.15;;;6.30;;
56005;SDS011;41888;44.696;10.522;2023-05-13T06:29:58;15.40;;;6.53;;
56005;SDS011;41888;44.696;10.522;2023-05-13T06:32:24;14.25;;;7.05;;
56005;SDS011;41888;44.696;10.522;2023-05-13T06:34:50;11.48;;;6.53;;
56005;SDS011;41888;44.696;10.522;2023-05-13T06:37:17;14.25;;;6.82;;
56005;SDS011;41888;44.696;10.522;2023-05-13T06:39:44;12.43;;;6.40;;
56005;SDS011;41888;44.696;10.522;2023-05-13T06:42:10;13.85;;;7.00;;
56005;SDS011;41888;44.696;10.522;2023-05-13T06:44:36;12.45;;;6.45;;
56005;SDS011;41888;44.696;10.522;2023-05-13T06:47:03;14.68;;;6.70;;
56005;SDS011;41888;44.696;10.522;2023-05-13T06:49:33;12.13;;;6.00;;
56005;SDS011;41888;44.696;10.522;2023-05-13T06:51:59;13.18;;;6.13;;
56005;SDS011;41888;44.696;10.522;2023-05-13T06:54:25;11.65;;;5.88;;
56005;SDS011;41888;44.696;10.522;2023-05-13T06:56:52;10.93;;;5.53;;
56005;SDS011;41888;44.696;10.522;2023-05-13T06:59:18;13.23;;;5.20;;
56005;SDS011;41888;44.696;10.522;2023-05-13T07:01:46;8.50;;;5.00;;
56005;SDS011;41888;44.696;10.522;2023-05-13T07:04:12;8.95;;;4.78;;
56005;SDS011;41888;44.696;10.522;2023-05-13T07:06:38;7.13;;;3.78;;
56005;SDS011;41888;44.696;10.522;2023-05-13T07:09:05;8.85;;;4.60;;
56005;SDS011;41888;44.696;10.522;2023-05-13T07:11:33;9.05;;;5.20;;
56005;SDS011;41888;44.696;10.522;2023-05-13T07:14:00;8.10;;;4.53;;
56005;SDS011;41888;44.696;10.522;2023-05-13T07:16:26;7.75;;;5.05;;
56005;SDS011;41888;44.696;10.522;2023-05-13T07:18:52;5.22;;;3.28;;
56005;SDS011;41888;44.696;10.522;2023-05-13T07:21:19;6.88;;;3.28;;
56005;SDS011;41888;44.696;10.522;2023-05-13T07:23:45;7.10;;;3.70;;
56005;SDS011;41888;44.696;10.522;2023-05-13T07:26:12;9.85;;;4.35;;
56005;SDS011;41888;44.696;10.522;2023-05-13T07:28:38;9.25;;;4.47;;
56005;SDS011;41888;44.696;10.522;2023-05-13T07:31:04;10.68;;;4.18;;
56005;SDS011;41888;44.696;10.522;2023-05-13T07:33:30;12.02;;;4.57;;
56005;SDS011;41888;44.696;10.522;2023-05-13T07:35:56;9.82;;;5.10;;
56005;SDS011;41888;44.696;10.522;2023-05-13T07:38:23;9.40;;;4.90;;
56005;SDS011;41888;44.696;10.522;2023-05-13T07:40:49;8.65;;;4.97;;
56005;SDS011;41888;44.696;10.522;2023-05-13T07:43:15;12.25;;;5.68;;
56005;SDS011;41888;44.696;10.522;2023-05-13T07:45:48;8.82;;;4.90;;
56005;SDS011;41888;44.696;10.522;2023-05-13T07:48:15;10.02;;;4.72;;
56005;SDS011;41888;44.696;10.522;2023-05-13T07:50:45;9.65;;;5.75;;
56005;SDS011;41888;44.696;10.522;2023-05-13T07:53:11;11.18;;;5.68;;
56005;SDS011;41888;44.696;10.522;2023-05-13T07:55:38;10.77;;;5.65;;
56005;SDS011;41888;44.696;10.522;2023-05-13T07:58:04;13.32;;;6.65;;
56005;SDS011;41888;44.696;10.522;2023-05-13T08:00:30;16.35;;;6.60;;
56005;SDS011;41888;44.696;10.522;2023-05-13T08:02:56;13.35;;;6.20;;
56005;SDS011;41888;44.696;10.522;2023-05-13T08:05:22;11.80;;;5.45;;
56005;SDS011;41888;44.696;10.522;2023-05-13T08:07:49;13.80;;;5.65;;
56005;SDS011;41888;44.696;10.522;2023-05-13T08:10:15;11.65;;;5.80;;
56005;SDS011;41888;44.696;10.522;2023-05-13T08:12:41;11.70;;;6.15;;
56005;SDS011;41888;44.696;10.522;2023-05-13T08:15:08;10.60;;;6.10;;
56005;SDS011;41888;44.696;10.522;2023-05-13T08:17:36;11.88;;;5.80;;
56005;SDS011;41888;44.696;10.522;2023-05-13T08:20:02;14.38;;;5.82;;
56005;SDS011;41888;44.696;10.522;2023-05-13T08:22:28;12.68;;;7.13;;
56005;SDS011;41888;44.696;10.522;2023-05-13T08:24:54;10.55;;;5.82;;
56005;SDS011;41888;44.696;10.522;2023-05-13T08:27:21;12.60;;;7.72;;
56005;SDS011;41888;44.696;10.522;2023-05-13T08:29:47;12.35;;;6.53;;
56005;SDS011;41888;44.696;10.522;2023-05-13T08:32:13;15.48;;;6.68;;
56005;SDS011;41888;44.696;10.522;2023-05-13T08:34:39;11.38;;;5.70;;
56005;SDS011;41888;44.696;10.522;2023-05-13T08:37:05;11.70;;;5.65;;
56005;SDS011;41888;44.696;10.522;2023-05-13T08:39:31;16.27;;;6.72;;
56005;SDS011;41888;44.696;10.522;2023-05-13T08:41:58;11.63;;;6.18;;
56005;SDS011;41888;44.696;10.522;2023-05-13T08:44:27;8.98;;;5.28;;
56005;SDS011;41888;44.696;10.522;2023-05-13T08:47:01;11.88;;;5.93;;
56005;SDS011;41888;44.696;10.522;2023-05-13T08:49:35;10.70;;;5.40;;
56005;SDS011;41888;44.696;10.522;2023-05-13T08:52:02;10.32;;;6.00;;
56005;SDS011;41888;44.696;10.522;2023-05-13T08:54:28;9.65;;;5.50;;
56005;SDS011;41888;44.696;10.522;2023-05-13T08:56:55;9.70;;;5.35;;
56005;SDS011;41888;44.696;10.522;2023-05-13T08:59:21;11.93;;;5.43;;
56005;SDS011;41888;44.696;10.522;2023-05-13T09:01:48;10.32;;;5.30;;
56005;SDS011;41888;44.696;10.522;2023-05-13T09:04:16;9.27;;;4.95;;
56005;SDS011;41888;44.696;10.522;2023-05-13T09:06:45;10.57;;;5.50;;
56005;SDS011;41888;44.696;10.522;2023-05-13T09:09:12;10.80;;;5.78;;
56005;SDS011;41888;44.696;10.522;2023-05-13T09:11:38;14.15;;;7.38;;
56005;SDS011;41888;44.696;10.522;2023-05-13T09:14:05;18.05;;;5.75;;
56005;SDS011;41888;44.696;10.522;2023-05-13T09:16:31;9.93;;;5.40;;
56005;SDS011;41888;44.696;10.522;2023-05-13T09:19:01;11.25;;;5.57;;
56005;SDS011;41888;44.696;10.522;2023-05-13T09:21:29;8.38;;;4.57;;
56005;SDS011;41888;44.696;10.522;2023-05-13T09:24:04;11.20;;;5.40;;
56005;SDS011;41888;44.696;10.522;2023-05-13T09:26:32;8.18;;;5.00;;
56005;SDS011;41888;44.696;10.522;2023-05-13T09:31:49;7.93;;;3.70;;
56005;SDS011;41888;44.696;10.522;2023-05-13T09:34:23;4.95;;;3.35;;
56005;SDS011;41888;44.696;10.522;2023-05-13T09:39:22;7.65;;;4.10;;
56005;SDS011;41888;44.696;10.522;2023-05-13T09:41:48;6.90;;;3.75;;
56005;SDS011;41888;44.696;10.522;2023-05-13T09:44:14;4.55;;;3.50;;
56005;SDS011;41888;44.696;10.522;2023-05-13T09:46:41;4.68;;;2.55;;
56005;SDS011;41888;44.696;10.522;2023-05-13T09:49:10;4.40;;;2.67;;
56005;SDS011;41888;44.696;10.522;2023-05-13T09:51:38;4.85;;;3.15;;
56005;SDS011;41888;44.696;10.522;2023-05-13T09:54:06;5.50;;;2.97;;
56005;SDS011;41888;44.696;10.522;2023-05-13T09:56:35;4.70;;;3.03;;
56005;SDS011;41888;44.696;10.522;2023-05-13T09:59:02;5.70;;;2.33;;
56005;SDS011;41888;44.696;10.522;2023-05-13T10:01:28;6.30;;;2.80;;
56005;SDS011;41888;44.696;10.522;2023-05-13T10:03:55;7.78;;;3.83;;
56005;SDS011;41888;44.696;10.522;2023-05-13T10:06:27;7.90;;;3.70;;
56005;SDS011;41888;44.696;10.522;2023-05-13T10:08:55;6.80;;;2.60;;
56005;SDS011;41888;44.696;10.522;2023-05-13T10:11:24;5.15;;;3.53;;
56005;SDS011;41888;44.696;10.522;2023-05-13T10:14:00;5.63;;;3.05;;
56005;SDS011;41888;44.696;10.522;2023-05-13T10:16:29;4.80;;;3.47;;
56005;SDS011;41888;44.696;10.522;2023-05-13T10:18:57;6.78;;;3.58;;
56005;SDS011;41888;44.696;10.522;2023-05-13T10:21:25;5.13;;;3.13;;
56005;SDS011;41888;44.696;10.522;2023-05-13T10:23:52;3.80;;;2.75;;
56005;SDS011;41888;44.696;10.522;2023-05-13T10:26:20;6.60;;;3.33;;
56005;SDS011;41888;44.696;10.522;2023-05-13T10:28:47;7.25;;;4.18;;
56005;SDS011;41888;44.696;10.522;2023-05-13T10:31:13;5.60;;;3.63;;
56005;SDS011;41888;44.696;10.522;2023-05-13T10:33:41;5.88;;;3.60;;
56005;SDS011;41888;44.696;10.522;2023-05-13T10:44:39;5.32;;;2.45;;
56005;SDS011;41888;44.696;10.522;2023-05-13T10:47:07;5.65;;;3.45;;
56005;SDS011;41888;44.696;10.522;2023-05-13T10:49:35;4.40;;;2.45;;
56005;SDS011;41888;44.696;10.522;2023-05-13T10:52:08;9.88;;;3.50;;
56005;SDS011;41888;44.696;10.522;2023-05-13T10:54:38;5.80;;;2.78;;
56005;SDS011;41888;44.696;10.522;2023-05-13T10:57:06;4.82;;;2.25;;
56005;SDS011;41888;44.696;10.522;2023-05-13T10:59:33;8.13;;;2.80;;
56005;SDS011;41888;44.696;10.522;2023-05-13T11:02:01;6.22;;;2.35;;
56005;SDS011;41888;44.696;10.522;2023-05-13T11:04:59;6.97;;;2.25;;
56005;SDS011;41888;44.696;10.522;2023-05-13T11:07:28;3.17;;;1.70;;
56005;SDS011;41888;44.696;10.522;2023-05-13T11:09:55;3.08;;;1.85;;
56005;SDS011;41888;44.696;10.522;2023-05-13T11:12:21;3.47;;;1.80;;
56005;SDS011;41888;44.696;10.522;2023-05-13T11:14:47;6.07;;;3.25;;
56005;SDS011;41888;44.696;10.522;2023-05-13T11:17:15;6.90;;;2.30;;
56005;SDS011;41888;44.696;10.522;2023-05-13T11:19:44;2.72;;;1.80;;
56005;SDS011;41888;44.696;10.522;2023-05-13T11:22:13;4.85;;;2.22;;
56005;SDS011;41888;44.696;10.522;2023-05-13T11:24:45;13.27;;;1.77;;
56005;SDS011;41888;44.696;10.522;2023-05-13T11:27:33;3.25;;;1.90;;
56005;SDS011;41888;44.696;10.522;2023-05-13T11:30:07;4.47;;;1.50;;
56005;SDS011;41888;44.696;10.522;2023-05-13T11:37:45;3.13;;;1.25;;
56005;SDS011;41888;44.696;10.522;2023-05-13T11:40:21;5.35;;;1.70;;
56005;SDS011;41888;44.696;10.522;2023-05-13T11:42:49;2.78;;;1.20;;
56005;SDS011;41888;44.696;10.522;2023-05-13T11:45:16;3.95;;;1.38;;
56005;SDS011;41888;44.696;10.522;2023-05-13T11:47:44;3.88;;;1.50;;
56005;SDS011;41888;44.696;10.522;2023-05-13T11:50:20;2.22;;;1.15;;
56005;SDS011;41888;44.696;10.522;2023-05-13T11:52:55;3.60;;;1.27;;
56005;SDS011;41888;44.696;10.522;2023-05-13T11:55:32;1.83;;;1.10;;
56005;SDS011;41888;44.696;10.522;2023-05-13T11:58:02;2.03;;;1.10;;
56005;SDS011;41888;44.696;10.522;2023-05-13T12:00:29;2.13;;;0.95;;
56005;SDS011;41888;44.696;10.522;2023-05-13T12:02:57;2.70;;;1.17;;
56005;SDS011;41888;44.696;10.522;2023-05-13T12:05:24;4.07;;;1.50;;
56005;SDS011;41888;44.696;10.522;2023-05-13T12:07:51;3.72;;;1.35;;
56005;SDS011;41888;44.696;10.522;2023-05-13T12:10:22;2.92;;;1.35;;
56005;SDS011;41888;44.696;10.522;2023-05-13T12:12:52;5.35;;;1.25;;
56005;SDS011;41888;44.696;10.522;2023-05-13T12:15:19;2.88;;;1.25;;
56005;SDS011;41888;44.696;10.522;2023-05-13T12:17:47;2.42;;;1.00;;
56005;SDS011;41888;44.696;10.522;2023-05-13T12:33:26;3.22;;;1.45;;
56005;SDS011;41888;44.696;10.522;2023-05-13T12:35:54;2.50;;;1.73;;
56005;SDS011;41888;44.696;10.522;2023-05-13T12:41:22;2.30;;;1.35;;
56005;SDS011;41888;44.696;10.522;2023-05-13T12:44:00;3.80;;;1.58;;
56005;SDS011;41888;44.696;10.522;2023-05-13T12:46:28;1.98;;;1.23;;
56005;SDS011;41888;44.696;10.522;2023-05-13T12:48:58;3.45;;;2.00;;
56005;SDS011;41888;44.696;10.522;2023-05-13T12:51:26;2.85;;;1.60;;
56005;SDS011;41888;44.696;10.522;2023-05-13T12:53:53;3.45;;;1.50;;
56005;SDS011;41888;44.696;10.522;2023-05-13T12:56:21;3.33;;;1.35;;
56005;SDS011;41888;44.696;10.522;2023-05-13T12:58:48;2.53;;;1.10;;
56005;SDS011;41888;44.696;10.522;2023-05-13T13:01:15;1.60;;;0.88;;
56005;SDS011;41888;44.696;10.522;2023-05-13T13:03:41;5.45;;;1.63;;
56005;SDS011;41888;44.696;10.522;2023-05-13T13:06:08;4.82;;;1.58;;
56005;SDS011;41888;44.696;10.522;2023-05-13T13:08:34;3.00;;;1.20;;
56005;SDS011;41888;44.696;10.522;2023-05-13T13:11:01;6.50;;;1.38;;
56005;SDS011;41888;44.696;10.522;2023-05-13T13:13:28;4.70;;;1.00;;
56005;SDS011;41888;44.696;10.522;2023-05-13T13:15:55;2.08;;;1.30;;
56005;SDS011;41888;44.696;10.522;2023-05-13T13:18:21;2.63;;;1.02;;
56005;SDS011;41888;44.696;10.522;2023-05-13T13:20:49;2.58;;;1.25;;
56005;SDS011;41888;44.696;10.522;2023-05-13T13:23:16;2.47;;;1.15;;
56005;SDS011;41888;44.696;10.522;2023-05-13T13:25:43;1.92;;;1.15;;
56005;SDS011;41888;44.696;10.522;2023-05-13T13:28:10;2.38;;;1.20;;
56005;SDS011;41888;44.696;10.522;2023-05-13T13:30:36;4.63;;;1.13;;
56005;SDS011;41888;44.696;10.522;2023-05-13T13:33:02;1.98;;;1.30;;
56005;SDS011;41888;44.696;10.522;2023-05-13T13:35:29;2.92;;;0.90;;
56005;SDS011;41888;44.696;10.522;2023-05-13T13:37:55;3.95;;;1.70;;
56005;SDS011;41888;44.696;10.522;2023-05-13T13:40:21;2.83;;;1.00;;
56005;SDS011;41888;44.696;10.522;2023-05-13T13:42:47;2.95;;;1.27;;
56005;SDS011;41888;44.696;10.522;2023-05-13T13:45:13;3.05;;;1.15;;
56005;SDS011;41888;44.696;10.522;2023-05-13T13:47:40;3.97;;;0.95;;
56005;SDS011;41888;44.696;10.522;2023-05-13T13:50:06;1.95;;;0.63;;
56005;SDS011;41888;44.696;10.522;2023-05-13T13:52:32;0.60;;;0.40;;
56005;SDS011;41888;44.696;10.522;2023-05-13T13:54:58;1.77;;;0.60;;
56005;SDS011;41888;44.696;10.522;2023-05-13T13:57:25;3.38;;;0.50;;
56005;SDS011;41888;44.696;10.522;2023-05-13T13:59:51;1.38;;;0.63;;
56005;SDS011;41888;44.696;10.522;2023-05-13T14:02:17;4.45;;;0.55;;
56005;SDS011;41888;44.696;10.522;2023-05-13T14:04:44;0.98;;;0.60;;
56005;SDS011;41888;44.696;10.522;2023-05-13T14:07:10;0.80;;;0.50;;
56005;SDS011;41888;44.696;10.522;2023-05-13T14:09:37;1.98;;;0.47;;
56005;SDS011;41888;44.696;10.522;2023-05-13T14:12:03;2.13;;;0.40;;
56005;SDS011;41888;44.696;10.522;2023-05-13T14:14:29;0.65;;;0.40;;
56005;SDS011;41888;44.696;10.522;2023-05-13T14:16:55;1.40;;;0.30;;
56005;SDS011;41888;44.696;10.522;2023-05-13T14:19:22;0.40;;;0.28;;
56005;SDS011;41888;44.696;10.522;2023-05-13T14:21:48;1.05;;;0.35;;
56005;SDS011;41888;44.696;10.522;2023-05-13T14:24:14;1.77;;;0.38;;
56005;SDS011;41888;44.696;10.522;2023-05-13T14:26:40;0.43;;;0.40;;
56005;SDS011;41888;44.696;10.522;2023-05-13T14:29:06;1.50;;;0.40;;
56005;SDS011;41888;44.696;10.522;2023-05-13T14:31:33;0.82;;;0.50;;
56005;SDS011;41888;44.696;10.522;2023-05-13T14:33:59;2.15;;;0.50;;
56005;SDS011;41888;44.696;10.522;2023-05-13T14:36:25;2.85;;;0.60;;
56005;SDS011;41888;44.696;10.522;2023-05-13T14:38:52;2.53;;;0.65;;
56005;SDS011;41888;44.696;10.522;2023-05-13T14:41:18;1.30;;;0.55;;
56005;SDS011;41888;44.696;10.522;2023-05-13T14:43:46;0.95;;;0.60;;
56005;SDS011;41888;44.696;10.522;2023-05-13T14:46:13;3.90;;;0.57;;
56005;SDS011;41888;44.696;10.522;2023-05-13T14:48:39;0.80;;;0.80;;
56005;SDS011;41888;44.696;10.522;2023-05-13T14:51:05;1.02;;;0.43;;
56005;SDS011;41888;44.696;10.522;2023-05-13T14:53:32;1.45;;;0.52;;
56005;SDS011;41888;44.696;10.522;2023-05-13T14:55:58;2.60;;;0.75;;
56005;SDS011;41888;44.696;10.522;2023-05-13T14:58:24;1.73;;;0.88;;
56005;SDS011;41888;44.696;10.522;2023-05-13T15:00:50;1.10;;;0.60;;
56005;SDS011;41888;44.696;10.522;2023-05-13T15:03:17;0.98;;;0.50;;
56005;SDS011;41888;44.696;10.522;2023-05-13T15:05:43;0.98;;;0.57;;
56005;SDS011;41888;44.696;10.522;2023-05-13T15:08:11;1.45;;;0.52;;
56005;SDS011;41888;44.696;10.522;2023-05-13T15:10:37;1.52;;;0.60;;
56005;SDS011;41888;44.696;10.522;2023-05-13T15:13:03;3.17;;;1.30;;